sensor_id;sensor_type;location;lat;lon;timestamp;P1;durP1;ratioP1;P2;durP2;ratioP2
4885;SDS011;2457;51.788;6.136;2023-05-07T00:02:09;7.67;;;4.90;;
4885;SDS011;2457;51.788;6.136;2023-05-07T00:04:36;9.30;;;5.10;;
4885;SDS011;2457;51.788;6.136;2023-05-07T00:07:05;7.90;;;4.40;;
4885;SDS011;2457;51.788;6.136;2023-05-07T00:09:32;9.53;;;5.10;;
4885;SDS011;2457;51.788;6.136;2023-05-07T00:11:59;11.17;;;4.70;;
4885;SDS011;2457;51.788;6.136;2023-05-07T00:14:27;8.97;;;4.77;;
4885;SDS011;2457;51.788;6.136;2023-05-07T00:16:54;9.67;;;4.80;;
4885;SDS011;2457;51.788;6.136;2023-05-07T00:19:22;9.80;;;5.50;;
4885;SDS011;2457;51.788;6.136;2023-05-07T00:21:49;9.40;;;4.73;;
4885;SDS011;2457;51.788;6.136;2023-05-07T00:24:16;9.90;;;5.17;;
4885;SDS011;2457;51.788;6.136;2023-05-07T00:26:44;7.30;;;4.83;;
4885;SDS011;2457;51.788;6.136;2023-05-07T00:29:11;8.80;;;4.53;;
4885;SDS011;2457;51.788;6.136;2023-05-07T00:31:38;10.00;;;5.30;;
4885;SDS011;2457;51.788;6.136;2023-05-07T00:34:05;18.43;;;5.40;;
4885;SDS011;2457;51.788;6.136;2023-05-07T00:36:33;7.60;;;4.70;;
4885;SDS011;2457;51.788;6.136;2023-05-07T00:39:00;8.10;;;4.67;;
4885;SDS011;2457;51.788;6.136;2023-05-07T00:41:29;7.80;;;4.57;;
4885;SDS011;2457;51.788;6.136;2023-05-07T00:43:59;8.20;;;4.83;;
4885;SDS011;2457;51.788;6.136;2023-05-07T00:46:28;8.67;;;4.43;;
4885;SDS011;2457;51.788;6.136;2023-05-07T00:48:57;7.23;;;4.43;;
4885;SDS011;2457;51.788;6.136;2023-05-07T00:51:25;8.57;;;4.67;;
4885;SDS011;2457;51.788;6.136;2023-05-07T00:53:53;7.20;;;4.53;;
4885;SDS011;2457;51.788;6.136;2023-05-07T00:56:21;8.30;;;4.83;;
4885;SDS011;2457;51.788;6.136;2023-05-07T00:58:48;8.87;;;5.30;;
4885;SDS011;2457;51.788;6.136;2023-05-07T01:01:16;12.50;;;5.50;;
4885;SDS011;2457;51.788;6.136;2023-05-07T01:03:43;8.60;;;5.03;;
4885;SDS011;2457;51.788;6.136;2023-05-07T01:06:11;8.13;;;4.67;;
4885;SDS011;2457;51.788;6.136;2023-05-07T01:08:39;8.93;;;5.60;;
4885;SDS011;2457;51.788;6.136;2023-05-07T01:11:07;9.60;;;4.97;;
4885;SDS011;2457;51.788;6.136;2023-05-07T01:13:35;9.10;;;5.43;;
4885;SDS011;2457;51.788;6.136;2023-05-07T01:16:03;9.77;;;4.93;;
4885;SDS011;2457;51.788;6.136;2023-05-07T01:18:31;9.07;;;5.13;;
4885;SDS011;2457;51.788;6.136;2023-05-07T01:20:58;9.40;;;5.90;;
4885;SDS011;2457;51.788;6.136;2023-05-07T01:23:26;9.57;;;5.10;;
4885;SDS011;2457;51.788;6.136;2023-05-07T01:25:54;9.00;;;5.70;;
4885;SDS011;2457;51.788;6.136;2023-05-07T01:28:21;9.73;;;5.50;;
4885;SDS011;2457;51.788;6.136;2023-05-07T01:30:52;8.43;;;5.40;;
4885;SDS011;2457;51.788;6.136;2023-05-07T01:33:21;7.93;;;4.67;;
4885;SDS011;2457;51.788;6.136;2023-05-07T01:35:54;9.03;;;5.30;;
4885;SDS011;2457;51.788;6.136;2023-05-07T01:38:18;8.77;;;5.17;;
4885;SDS011;2457;51.788;6.136;2023-05-07T01:40:46;8.83;;;5.87;;
4885;SDS011;2457;51.788;6.136;2023-05-07T01:43:13;9.17;;;5.20;;
4885;SDS011;2457;51.788;6.136;2023-05-07T01:45:41;7.90;;;4.70;;
4885;SDS011;2457;51.788;6.136;2023-05-07T01:48:11;11.70;;;5.30;;
4885;SDS011;2457;51.788;6.136;2023-05-07T01:50:38;9.60;;;5.00;;
4885;SDS011;2457;51.788;6.136;2023-05-07T01:53:06;9.83;;;5.40;;
4885;SDS011;2457;51.788;6.136;2023-05-07T01:55:33;8.80;;;5.87;;
4885;SDS011;2457;51.788;6.136;2023-05-07T01:58:03;12.13;;;5.57;;
4885;SDS011;2457;51.788;6.136;2023-05-07T02:00:30;9.63;;;5.50;;
4885;SDS011;2457;51.788;6.136;2023-05-07T02:02:58;10.03;;;6.17;;
4885;SDS011;2457;51.788;6.136;2023-05-07T02:05:25;9.87;;;5.97;;
4885;SDS011;2457;51.788;6.136;2023-05-07T02:07:52;10.27;;;5.97;;
4885;SDS011;2457;51.788;6.136;2023-05-07T02:10:20;9.00;;;5.63;;
4885;SDS011;2457;51.788;6.136;2023-05-07T02:12:47;9.50;;;5.73;;
4885;SDS011;2457;51.788;6.136;2023-05-07T02:15:14;9.70;;;5.97;;
4885;SDS011;2457;51.788;6.136;2023-05-07T02:18:00;9.40;;;5.83;;
4885;SDS011;2457;51.788;6.136;2023-05-07T02:20:28;8.23;;;5.60;;
4885;SDS011;2457;51.788;6.136;2023-05-07T02:22:55;10.77;;;6.10;;
4885;SDS011;2457;51.788;6.136;2023-05-07T02:25:23;8.63;;;5.47;;
4885;SDS011;2457;51.788;6.136;2023-05-07T02:27:50;12.30;;;6.20;;
4885;SDS011;2457;51.788;6.136;2023-05-07T02:30:17;11.67;;;5.77;;
4885;SDS011;2457;51.788;6.136;2023-05-07T02:32:45;8.60;;;5.50;;
4885;SDS011;2457;51.788;6.136;2023-05-07T02:35:12;12.53;;;6.00;;
4885;SDS011;2457;51.788;6.136;2023-05-07T02:37:39;10.87;;;5.83;;
4885;SDS011;2457;51.788;6.136;2023-05-07T02:40:07;8.90;;;5.40;;
4885;SDS011;2457;51.788;6.136;2023-05-07T02:42:34;9.80;;;5.97;;
4885;SDS011;2457;51.788;6.136;2023-05-07T02:45:01;11.13;;;5.97;;
4885;SDS011;2457;51.788;6.136;2023-05-07T02:47:29;10.00;;;6.00;;
4885;SDS011;2457;51.788;6.136;2023-05-07T02:49:56;10.40;;;5.77;;
4885;SDS011;2457;51.788;6.136;2023-05-07T02:52:23;11.77;;;6.00;;
4885;SDS011;2457;51.788;6.136;2023-05-07T02:54:50;10.37;;;6.37;;
4885;SDS011;2457;51.788;6.136;2023-05-07T02:57:18;12.13;;;6.83;;
4885;SDS011;2457;51.788;6.136;2023-05-07T02:59:45;12.13;;;6.90;;
4885;SDS011;2457;51.788;6.136;2023-05-07T03:02:12;10.53;;;6.10;;
4885;SDS011;2457;51.788;6.136;2023-05-07T03:04:40;13.57;;;7.07;;
4885;SDS011;2457;51.788;6.136;2023-05-07T03:07:07;10.40;;;5.63;;
4885;SDS011;2457;51.788;6.136;2023-05-07T03:09:35;12.13;;;6.33;;
4885;SDS011;2457;51.788;6.136;2023-05-07T03:12:02;8.77;;;5.60;;
4885;SDS011;2457;51.788;6.136;2023-05-07T03:14:29;9.90;;;6.13;;
4885;SDS011;2457;51.788;6.136;2023-05-07T03:16:57;14.60;;;6.60;;
4885;SDS011;2457;51.788;6.136;2023-05-07T03:19:24;11.23;;;5.93;;
4885;SDS011;2457;51.788;6.136;2023-05-07T03:21:51;9.77;;;5.43;;
4885;SDS011;2457;51.788;6.136;2023-05-07T03:24:19;10.57;;;6.33;;
4885;SDS011;2457;51.788;6.136;2023-05-07T03:26:46;10.27;;;5.90;;
4885;SDS011;2457;51.788;6.136;2023-05-07T03:29:13;9.90;;;6.60;;
4885;SDS011;2457;51.788;6.136;2023-05-07T03:31:41;8.83;;;6.20;;
4885;SDS011;2457;51.788;6.136;2023-05-07T03:34:08;10.57;;;6.20;;
4885;SDS011;2457;51.788;6.136;2023-05-07T03:36:35;14.93;;;5.87;;
4885;SDS011;2457;51.788;6.136;2023-05-07T03:39:03;9.30;;;6.07;;
4885;SDS011;2457;51.788;6.136;2023-05-07T03:41:30;9.77;;;6.47;;
4885;SDS011;2457;51.788;6.136;2023-05-07T03:43:57;10.30;;;6.00;;
4885;SDS011;2457;51.788;6.136;2023-05-07T03:46:25;12.07;;;6.60;;
4885;SDS011;2457;51.788;6.136;2023-05-07T03:48:52;10.53;;;5.70;;
4885;SDS011;2457;51.788;6.136;2023-05-07T03:51:19;9.50;;;5.60;;
4885;SDS011;2457;51.788;6.136;2023-05-07T03:53:47;12.13;;;6.33;;
4885;SDS011;2457;51.788;6.136;2023-05-07T03:56:14;9.40;;;5.20;;
4885;SDS011;2457;51.788;6.136;2023-05-07T03:58:41;10.37;;;6.23;;
4885;SDS011;2457;51.788;6.136;2023-05-07T04:01:08;10.83;;;5.77;;
4885;SDS011;2457;51.788;6.136;2023-05-07T04:03:36;11.40;;;6.20;;
4885;SDS011;2457;51.788;6.136;2023-05-07T04:06:03;10.37;;;6.50;;
4885;SDS011;2457;51.788;6.136;2023-05-07T04:08:30;12.43;;;6.90;;
4885;SDS011;2457;51.788;6.136;2023-05-07T04:10:58;10.80;;;7.07;;
4885;SDS011;2457;51.788;6.136;2023-05-07T04:13:25;10.70;;;6.50;;
4885;SDS011;2457;51.788;6.136;2023-05-07T04:15:53;12.10;;;6.90;;
4885;SDS011;2457;51.788;6.136;2023-05-07T04:18:20;10.23;;;6.27;;
4885;SDS011;2457;51.788;6.136;2023-05-07T04:20:48;10.40;;;6.30;;
4885;SDS011;2457;51.788;6.136;2023-05-07T04:23:18;10.80;;;6.60;;
4885;SDS011;2457;51.788;6.136;2023-05-07T04:25:45;11.27;;;6.97;;
4885;SDS011;2457;51.788;6.136;2023-05-07T04:28:12;11.60;;;6.73;;
4885;SDS011;2457;51.788;6.136;2023-05-07T04:30:40;11.37;;;6.77;;
4885;SDS011;2457;51.788;6.136;2023-05-07T04:33:07;9.17;;;6.13;;
4885;SDS011;2457;51.788;6.136;2023-05-07T04:35:35;9.53;;;6.63;;
4885;SDS011;2457;51.788;6.136;2023-05-07T04:38:02;10.00;;;6.10;;
4885;SDS011;2457;51.788;6.136;2023-05-07T04:40:29;10.87;;;7.03;;
4885;SDS011;2457;51.788;6.136;2023-05-07T04:42:57;13.13;;;7.30;;
4885;SDS011;2457;51.788;6.136;2023-05-07T04:45:24;10.43;;;6.73;;
4885;SDS011;2457;51.788;6.136;2023-05-07T04:47:51;11.33;;;6.70;;
4885;SDS011;2457;51.788;6.136;2023-05-07T04:50:19;12.10;;;7.23;;
4885;SDS011;2457;51.788;6.136;2023-05-07T04:52:46;14.50;;;7.30;;
4885;SDS011;2457;51.788;6.136;2023-05-07T04:55:13;12.40;;;7.40;;
4885;SDS011;2457;51.788;6.136;2023-05-07T04:57:41;10.90;;;7.20;;
4885;SDS011;2457;51.788;6.136;2023-05-07T05:00:08;12.67;;;6.90;;
4885;SDS011;2457;51.788;6.136;2023-05-07T05:02:36;12.33;;;7.20;;
4885;SDS011;2457;51.788;6.136;2023-05-07T05:05:03;15.10;;;6.70;;
4885;SDS011;2457;51.788;6.136;2023-05-07T05:07:31;12.93;;;6.63;;
4885;SDS011;2457;51.788;6.136;2023-05-07T05:09:58;10.57;;;6.67;;
4885;SDS011;2457;51.788;6.136;2023-05-07T05:12:25;10.80;;;6.50;;
4885;SDS011;2457;51.788;6.136;2023-05-07T05:14:53;11.40;;;6.80;;
4885;SDS011;2457;51.788;6.136;2023-05-07T05:17:20;12.03;;;7.27;;
4885;SDS011;2457;51.788;6.136;2023-05-07T05:19:47;9.13;;;6.10;;
4885;SDS011;2457;51.788;6.136;2023-05-07T05:22:14;10.60;;;7.00;;
4885;SDS011;2457;51.788;6.136;2023-05-07T05:24:42;11.20;;;7.40;;
4885;SDS011;2457;51.788;6.136;2023-05-07T05:27:09;14.53;;;5.90;;
4885;SDS011;2457;51.788;6.136;2023-05-07T05:29:36;11.27;;;6.57;;
4885;SDS011;2457;51.788;6.136;2023-05-07T05:32:04;11.77;;;7.70;;
4885;SDS011;2457;51.788;6.136;2023-05-07T05:34:31;11.30;;;6.90;;
4885;SDS011;2457;51.788;6.136;2023-05-07T05:36:59;11.53;;;6.80;;
4885;SDS011;2457;51.788;6.136;2023-05-07T05:39:26;10.30;;;6.37;;
4885;SDS011;2457;51.788;6.136;2023-05-07T05:41:54;10.00;;;6.63;;
4885;SDS011;2457;51.788;6.136;2023-05-07T05:44:21;10.50;;;7.17;;
4885;SDS011;2457;51.788;6.136;2023-05-07T05:46:48;10.80;;;6.60;;
4885;SDS011;2457;51.788;6.136;2023-05-07T05:49:20;12.50;;;6.33;;
4885;SDS011;2457;51.788;6.136;2023-05-07T05:51:47;10.20;;;6.83;;
4885;SDS011;2457;51.788;6.136;2023-05-07T05:54:14;11.60;;;7.17;;
4885;SDS011;2457;51.788;6.136;2023-05-07T05:56:41;11.20;;;6.33;;
4885;SDS011;2457;51.788;6.136;2023-05-07T05:59:09;13.47;;;6.83;;
4885;SDS011;2457;51.788;6.136;2023-05-07T06:01:36;12.93;;;7.07;;
4885;SDS011;2457;51.788;6.136;2023-05-07T06:04:04;10.70;;;6.10;;
4885;SDS011;2457;51.788;6.136;2023-05-07T06:06:31;10.80;;;6.57;;
4885;SDS011;2457;51.788;6.136;2023-05-07T06:08:58;10.00;;;6.20;;
4885;SDS011;2457;51.788;6.136;2023-05-07T06:11:26;13.53;;;6.97;;
4885;SDS011;2457;51.788;6.136;2023-05-07T06:13:53;10.47;;;6.13;;
4885;SDS011;2457;51.788;6.136;2023-05-07T06:16:20;10.13;;;6.43;;
4885;SDS011;2457;51.788;6.136;2023-05-07T06:18:48;14.57;;;7.87;;
4885;SDS011;2457;51.788;6.136;2023-05-07T06:21:15;10.20;;;6.27;;
4885;SDS011;2457;51.788;6.136;2023-05-07T06:23:42;11.37;;;6.90;;
4885;SDS011;2457;51.788;6.136;2023-05-07T06:26:09;12.70;;;7.10;;
4885;SDS011;2457;51.788;6.136;2023-05-07T06:28:37;10.53;;;6.40;;
4885;SDS011;2457;51.788;6.136;2023-05-07T06:31:17;10.60;;;6.50;;
4885;SDS011;2457;51.788;6.136;2023-05-07T06:33:46;10.37;;;6.70;;
4885;SDS011;2457;51.788;6.136;2023-05-07T06:36:13;9.03;;;6.12;;
4885;SDS011;2457;51.788;6.136;2023-05-07T06:38:41;12.13;;;7.03;;
4885;SDS011;2457;51.788;6.136;2023-05-07T06:41:08;12.20;;;6.30;;
4885;SDS011;2457;51.788;6.136;2023-05-07T06:43:35;12.03;;;6.43;;
4885;SDS011;2457;51.788;6.136;2023-05-07T06:46:03;10.73;;;6.70;;
4885;SDS011;2457;51.788;6.136;2023-05-07T06:48:30;11.33;;;6.43;;
4885;SDS011;2457;51.788;6.136;2023-05-07T06:50:57;11.03;;;7.13;;
4885;SDS011;2457;51.788;6.136;2023-05-07T06:53:24;13.27;;;6.70;;
4885;SDS011;2457;51.788;6.136;2023-05-07T06:55:52;11.90;;;6.47;;
4885;SDS011;2457;51.788;6.136;2023-05-07T06:58:20;10.57;;;6.63;;
4885;SDS011;2457;51.788;6.136;2023-05-07T07:00:47;10.77;;;6.17;;
4885;SDS011;2457;51.788;6.136;2023-05-07T07:03:14;10.67;;;6.57;;
4885;SDS011;2457;51.788;6.136;2023-05-07T07:05:42;11.77;;;6.50;;
4885;SDS011;2457;51.788;6.136;2023-05-07T07:08:09;10.47;;;6.60;;
4885;SDS011;2457;51.788;6.136;2023-05-07T07:10:37;12.50;;;6.00;;
4885;SDS011;2457;51.788;6.136;2023-05-07T07:13:04;12.03;;;7.03;;
4885;SDS011;2457;51.788;6.136;2023-05-07T07:15:31;13.20;;;6.77;;
4885;SDS011;2457;51.788;6.136;2023-05-07T07:17:58;10.30;;;6.30;;
4885;SDS011;2457;51.788;6.136;2023-05-07T07:20:26;10.77;;;5.93;;
4885;SDS011;2457;51.788;6.136;2023-05-07T07:22:53;11.40;;;6.20;;
4885;SDS011;2457;51.788;6.136;2023-05-07T07:25:20;10.93;;;6.10;;
4885;SDS011;2457;51.788;6.136;2023-05-07T07:27:47;11.43;;;6.40;;
4885;SDS011;2457;51.788;6.136;2023-05-07T07:30:15;9.50;;;5.60;;
4885;SDS011;2457;51.788;6.136;2023-05-07T07:32:42;10.07;;;6.17;;
4885;SDS011;2457;51.788;6.136;2023-05-07T07:35:09;12.60;;;6.90;;
4885;SDS011;2457;51.788;6.136;2023-05-07T07:37:36;9.77;;;6.13;;
4885;SDS011;2457;51.788;6.136;2023-05-07T07:40:04;12.57;;;5.37;;
4885;SDS011;2457;51.788;6.136;2023-05-07T07:42:31;9.63;;;6.10;;
4885;SDS011;2457;51.788;6.136;2023-05-07T07:44:59;12.50;;;6.17;;
4885;SDS011;2457;51.788;6.136;2023-05-07T07:47:26;11.27;;;5.90;;
4885;SDS011;2457;51.788;6.136;2023-05-07T07:49:53;10.17;;;5.30;;
4885;SDS011;2457;51.788;6.136;2023-05-07T07:52:20;12.77;;;5.77;;
4885;SDS011;2457;51.788;6.136;2023-05-07T07:54:47;11.37;;;6.30;;
4885;SDS011;2457;51.788;6.136;2023-05-07T07:57:15;9.83;;;5.67;;
4885;SDS011;2457;51.788;6.136;2023-05-07T07:59:42;12.70;;;5.80;;
4885;SDS011;2457;51.788;6.136;2023-05-07T08:02:09;8.83;;;5.43;;
4885;SDS011;2457;51.788;6.136;2023-05-07T08:04:37;11.43;;;6.40;;
4885;SDS011;2457;51.788;6.136;2023-05-07T08:07:04;10.47;;;5.57;;
4885;SDS011;2457;51.788;6.136;2023-05-07T08:09:32;10.90;;;6.63;;
4885;SDS011;2457;51.788;6.136;2023-05-07T08:11:59;9.03;;;5.23;;
4885;SDS011;2457;51.788;6.136;2023-05-07T08:14:27;8.30;;;5.20;;
4885;SDS011;2457;51.788;6.136;2023-05-07T08:16:55;9.23;;;5.03;;
4885;SDS011;2457;51.788;6.136;2023-05-07T08:19:22;10.87;;;5.40;;
4885;SDS011;2457;51.788;6.136;2023-05-07T08:21:49;11.90;;;5.97;;
4885;SDS011;2457;51.788;6.136;2023-05-07T08:24:17;12.23;;;6.17;;
4885;SDS011;2457;51.788;6.136;2023-05-07T08:26:44;9.90;;;5.67;;
4885;SDS011;2457;51.788;6.136;2023-05-07T08:29:12;9.10;;;5.60;;
4885;SDS011;2457;51.788;6.136;2023-05-07T08:31:39;10.30;;;6.20;;
4885;SDS011;2457;51.788;6.136;2023-05-07T08:34:06;10.40;;;5.60;;
4885;SDS011;2457;51.788;6.136;2023-05-07T08:36:34;11.07;;;5.90;;
4885;SDS011;2457;51.788;6.136;2023-05-07T08:39:01;11.23;;;6.60;;
4885;SDS011;2457;51.788;6.136;2023-05-07T08:41:29;9.50;;;5.73;;
4885;SDS011;2457;51.788;6.136;2023-05-07T08:43:57;17.23;;;5.57;;
4885;SDS011;2457;51.788;6.136;2023-05-07T08:46:26;9.53;;;5.27;;
4885;SDS011;2457;51.788;6.136;2023-05-07T08:48:55;10.87;;;6.27;;
4885;SDS011;2457;51.788;6.136;2023-05-07T08:51:22;20.27;;;7.10;;
4885;SDS011;2457;51.788;6.136;2023-05-07T08:53:49;10.63;;;6.07;;
4885;SDS011;2457;51.788;6.136;2023-05-07T08:56:17;10.87;;;5.70;;
4885;SDS011;2457;51.788;6.136;2023-05-07T08:58:46;9.00;;;5.20;;
4885;SDS011;2457;51.788;6.136;2023-05-07T09:01:13;13.40;;;6.50;;
4885;SDS011;2457;51.788;6.136;2023-05-07T09:03:42;9.60;;;5.63;;
4885;SDS011;2457;51.788;6.136;2023-05-07T09:06:10;10.60;;;5.23;;
4885;SDS011;2457;51.788;6.136;2023-05-07T09:08:37;12.60;;;5.70;;
4885;SDS011;2457;51.788;6.136;2023-05-07T09:11:05;10.67;;;5.13;;
4885;SDS011;2457;51.788;6.136;2023-05-07T09:13:32;9.10;;;4.70;;
4885;SDS011;2457;51.788;6.136;2023-05-07T09:16:09;8.67;;;5.20;;
4885;SDS011;2457;51.788;6.136;2023-05-07T09:18:28;7.77;;;4.90;;
4885;SDS011;2457;51.788;6.136;2023-05-07T09:20:55;14.53;;;6.27;;
4885;SDS011;2457;51.788;6.136;2023-05-07T09:23:23;14.03;;;6.27;;
4885;SDS011;2457;51.788;6.136;2023-05-07T09:25:50;10.00;;;4.60;;
4885;SDS011;2457;51.788;6.136;2023-05-07T09:28:21;11.90;;;4.80;;
4885;SDS011;2457;51.788;6.136;2023-05-07T09:30:48;11.57;;;4.97;;
4885;SDS011;2457;51.788;6.136;2023-05-07T09:33:15;8.80;;;4.73;;
4885;SDS011;2457;51.788;6.136;2023-05-07T09:35:43;8.43;;;4.90;;
4885;SDS011;2457;51.788;6.136;2023-05-07T09:38:10;10.17;;;5.10;;
4885;SDS011;2457;51.788;6.136;2023-05-07T09:40:38;9.03;;;4.90;;
4885;SDS011;2457;51.788;6.136;2023-05-07T09:43:12;15.87;;;4.37;;
4885;SDS011;2457;51.788;6.136;2023-05-07T09:45:40;10.60;;;4.90;;
4885;SDS011;2457;51.788;6.136;2023-05-07T09:48:07;7.03;;;4.10;;
4885;SDS011;2457;51.788;6.136;2023-05-07T09:50:36;8.00;;;4.67;;
4885;SDS011;2457;51.788;6.136;2023-05-07T09:53:03;9.10;;;4.90;;
4885;SDS011;2457;51.788;6.136;2023-05-07T09:55:31;8.80;;;4.47;;
4885;SDS011;2457;51.788;6.136;2023-05-07T09:57:58;11.60;;;5.03;;
4885;SDS011;2457;51.788;6.136;2023-05-07T10:00:28;7.60;;;4.50;;
4885;SDS011;2457;51.788;6.136;2023-05-07T10:02:56;8.33;;;4.50;;
4885;SDS011;2457;51.788;6.136;2023-05-07T10:05:24;7.60;;;4.40;;
4885;SDS011;2457;51.788;6.136;2023-05-07T10:07:52;7.23;;;3.30;;
4885;SDS011;2457;51.788;6.136;2023-05-07T10:10:19;7.00;;;3.70;;
4885;SDS011;2457;51.788;6.136;2023-05-07T10:12:47;10.93;;;4.80;;
4885;SDS011;2457;51.788;6.136;2023-05-07T10:15:14;7.33;;;4.27;;
4885;SDS011;2457;51.788;6.136;2023-05-07T10:17:41;7.70;;;3.80;;
4885;SDS011;2457;51.788;6.136;2023-05-07T10:20:09;10.07;;;3.53;;
4885;SDS011;2457;51.788;6.136;2023-05-07T10:22:41;7.40;;;3.87;;
4885;SDS011;2457;51.788;6.136;2023-05-07T10:25:13;9.10;;;4.10;;
4885;SDS011;2457;51.788;6.136;2023-05-07T10:27:37;7.43;;;3.63;;
4885;SDS011;2457;51.788;6.136;2023-05-07T10:32:53;6.03;;;2.90;;
4885;SDS011;2457;51.788;6.136;2023-05-07T10:35:24;11.20;;;4.07;;
4885;SDS011;2457;51.788;6.136;2023-05-07T10:37:53;6.70;;;3.03;;
4885;SDS011;2457;51.788;6.136;2023-05-07T10:40:20;8.13;;;3.13;;
4885;SDS011;2457;51.788;6.136;2023-05-07T10:42:54;9.00;;;3.57;;
4885;SDS011;2457;51.788;6.136;2023-05-07T10:45:22;7.67;;;4.00;;
4885;SDS011;2457;51.788;6.136;2023-05-07T10:48:08;7.53;;;3.90;;
4885;SDS011;2457;51.788;6.136;2023-05-07T10:50:36;7.40;;;3.20;;
4885;SDS011;2457;51.788;6.136;2023-05-07T10:55:49;8.00;;;3.87;;
4885;SDS011;2457;51.788;6.136;2023-05-07T10:58:23;6.13;;;3.23;;
4885;SDS011;2457;51.788;6.136;2023-05-07T11:00:57;8.30;;;4.00;;
4885;SDS011;2457;51.788;6.136;2023-05-07T11:03:22;7.43;;;3.33;;
4885;SDS011;2457;51.788;6.136;2023-05-07T11:06:08;6.90;;;3.57;;
4885;SDS011;2457;51.788;6.136;2023-05-07T11:08:52;7.30;;;3.50;;
4885;SDS011;2457;51.788;6.136;2023-05-07T11:11:20;7.87;;;3.87;;
4885;SDS011;2457;51.788;6.136;2023-05-07T11:13:48;7.83;;;4.10;;
4885;SDS011;2457;51.788;6.136;2023-05-07T11:16:18;8.33;;;4.00;;
4885;SDS011;2457;51.788;6.136;2023-05-07T11:18:46;7.10;;;3.87;;
4885;SDS011;2457;51.788;6.136;2023-05-07T11:21:20;5.33;;;2.50;;
4885;SDS011;2457;51.788;6.136;2023-05-07T11:26:17;9.20;;;4.10;;
4885;SDS011;2457;51.788;6.136;2023-05-07T11:28:45;6.47;;;3.37;;
4885;SDS011;2457;51.788;6.136;2023-05-07T11:31:12;7.60;;;3.73;;
4885;SDS011;2457;51.788;6.136;2023-05-07T11:33:40;5.83;;;3.20;;
4885;SDS011;2457;51.788;6.136;2023-05-07T11:36:08;7.93;;;3.57;;
4885;SDS011;2457;51.788;6.136;2023-05-07T11:38:36;7.17;;;4.03;;
4885;SDS011;2457;51.788;6.136;2023-05-07T11:41:03;6.47;;;3.40;;
4885;SDS011;2457;51.788;6.136;2023-05-07T11:43:34;11.20;;;4.30;;
4885;SDS011;2457;51.788;6.136;2023-05-07T11:46:09;8.90;;;4.50;;
4885;SDS011;2457;51.788;6.136;2023-05-07T11:48:33;7.50;;;4.20;;
4885;SDS011;2457;51.788;6.136;2023-05-07T11:51:01;10.20;;;5.00;;
4885;SDS011;2457;51.788;6.136;2023-05-07T11:53:36;7.63;;;4.00;;
4885;SDS011;2457;51.788;6.136;2023-05-07T11:56:11;7.83;;;4.10;;
4885;SDS011;2457;51.788;6.136;2023-05-07T11:58:35;7.47;;;3.30;;
4885;SDS011;2457;51.788;6.136;2023-05-07T12:01:02;7.10;;;3.70;;
4885;SDS011;2457;51.788;6.136;2023-05-07T12:03:29;7.10;;;3.23;;
4885;SDS011;2457;51.788;6.136;2023-05-07T12:05:57;7.13;;;3.20;;
4885;SDS011;2457;51.788;6.136;2023-05-07T12:08:24;8.23;;;3.50;;
4885;SDS011;2457;51.788;6.136;2023-05-07T12:10:51;7.13;;;3.40;;
4885;SDS011;2457;51.788;6.136;2023-05-07T12:13:19;5.20;;;2.20;;
4885;SDS011;2457;51.788;6.136;2023-05-07T12:15:47;7.50;;;2.80;;
4885;SDS011;2457;51.788;6.136;2023-05-07T12:18:15;12.13;;;3.87;;
4885;SDS011;2457;51.788;6.136;2023-05-07T12:20:42;9.47;;;3.83;;
4885;SDS011;2457;51.788;6.136;2023-05-07T12:23:11;6.40;;;3.10;;
4885;SDS011;2457;51.788;6.136;2023-05-07T12:25:39;6.37;;;2.30;;
4885;SDS011;2457;51.788;6.136;2023-05-07T12:28:12;6.70;;;3.10;;
4885;SDS011;2457;51.788;6.136;2023-05-07T12:30:38;6.80;;;2.77;;
4885;SDS011;2457;51.788;6.136;2023-05-07T12:33:05;6.83;;;2.90;;
4885;SDS011;2457;51.788;6.136;2023-05-07T12:35:40;7.40;;;3.70;;
4885;SDS011;2457;51.788;6.136;2023-05-07T12:38:13;7.40;;;3.20;;
4885;SDS011;2457;51.788;6.136;2023-05-07T12:40:42;12.50;;;3.87;;
4885;SDS011;2457;51.788;6.136;2023-05-07T12:43:19;6.70;;;3.20;;
4885;SDS011;2457;51.788;6.136;2023-05-07T12:45:44;6.37;;;3.30;;
4885;SDS011;2457;51.788;6.136;2023-05-07T12:48:12;8.30;;;3.00;;
4885;SDS011;2457;51.788;6.136;2023-05-07T12:50:39;5.70;;;2.53;;
4885;SDS011;2457;51.788;6.136;2023-05-07T12:53:07;6.07;;;2.80;;
4885;SDS011;2457;51.788;6.136;2023-05-07T12:55:44;7.70;;;2.90;;
4885;SDS011;2457;51.788;6.136;2023-05-07T12:58:14;5.70;;;2.73;;
4885;SDS011;2457;51.788;6.136;2023-05-07T13:00:38;7.43;;;3.20;;
4885;SDS011;2457;51.788;6.136;2023-05-07T13:03:05;8.10;;;3.70;;
4885;SDS011;2457;51.788;6.136;2023-05-07T13:05:32;8.70;;;3.33;;
4885;SDS011;2457;51.788;6.136;2023-05-07T13:08:00;18.47;;;4.33;;
4885;SDS011;2457;51.788;6.136;2023-05-07T13:10:27;7.20;;;3.43;;
4885;SDS011;2457;51.788;6.136;2023-05-07T13:12:55;8.13;;;4.33;;
4885;SDS011;2457;51.788;6.136;2023-05-07T13:15:22;7.97;;;4.17;;
4885;SDS011;2457;51.788;6.136;2023-05-07T13:17:49;9.00;;;4.30;;
4885;SDS011;2457;51.788;6.136;2023-05-07T13:20:16;9.53;;;4.17;;
4885;SDS011;2457;51.788;6.136;2023-05-07T13:22:44;8.47;;;3.90;;
4885;SDS011;2457;51.788;6.136;2023-05-07T13:25:11;8.40;;;4.37;;
4885;SDS011;2457;51.788;6.136;2023-05-07T13:27:38;10.07;;;4.77;;
4885;SDS011;2457;51.788;6.136;2023-05-07T13:30:06;8.80;;;4.17;;
4885;SDS011;2457;51.788;6.136;2023-05-07T13:32:33;8.60;;;4.37;;
4885;SDS011;2457;51.788;6.136;2023-05-07T13:35:01;8.20;;;4.40;;
4885;SDS011;2457;51.788;6.136;2023-05-07T13:37:28;8.47;;;4.10;;
4885;SDS011;2457;51.788;6.136;2023-05-07T13:39:55;10.03;;;4.13;;
4885;SDS011;2457;51.788;6.136;2023-05-07T13:42:23;8.90;;;4.37;;
4885;SDS011;2457;51.788;6.136;2023-05-07T13:44:50;7.40;;;3.50;;
4885;SDS011;2457;51.788;6.136;2023-05-07T13:47:17;7.70;;;4.07;;
4885;SDS011;2457;51.788;6.136;2023-05-07T13:49:44;11.23;;;4.80;;
4885;SDS011;2457;51.788;6.136;2023-05-07T13:52:12;7.37;;;4.17;;
4885;SDS011;2457;51.788;6.136;2023-05-07T13:54:39;11.23;;;4.40;;
4885;SDS011;2457;51.788;6.136;2023-05-07T13:57:06;8.70;;;3.80;;
4885;SDS011;2457;51.788;6.136;2023-05-07T13:59:33;11.63;;;4.80;;
4885;SDS011;2457;51.788;6.136;2023-05-07T14:02:01;8.63;;;3.90;;
4885;SDS011;2457;51.788;6.136;2023-05-07T14:04:28;8.30;;;4.00;;
4885;SDS011;2457;51.788;6.136;2023-05-07T14:06:55;8.53;;;4.17;;
4885;SDS011;2457;51.788;6.136;2023-05-07T14:09:22;9.70;;;4.53;;
4885;SDS011;2457;51.788;6.136;2023-05-07T14:11:50;9.00;;;4.00;;
4885;SDS011;2457;51.788;6.136;2023-05-07T14:14:18;9.20;;;3.83;;
4885;SDS011;2457;51.788;6.136;2023-05-07T14:16:46;11.20;;;3.97;;
4885;SDS011;2457;51.788;6.136;2023-05-07T14:19:13;9.30;;;3.80;;
4885;SDS011;2457;51.788;6.136;2023-05-07T14:21:40;7.97;;;3.77;;
4885;SDS011;2457;51.788;6.136;2023-05-07T14:24:08;7.90;;;3.53;;
4885;SDS011;2457;51.788;6.136;2023-05-07T14:26:35;11.43;;;4.50;;
4885;SDS011;2457;51.788;6.136;2023-05-07T14:29:03;8.77;;;4.53;;
4885;SDS011;2457;51.788;6.136;2023-05-07T14:31:30;8.40;;;3.83;;
4885;SDS011;2457;51.788;6.136;2023-05-07T14:33:57;7.10;;;4.03;;
4885;SDS011;2457;51.788;6.136;2023-05-07T14:36:25;9.77;;;4.67;;
4885;SDS011;2457;51.788;6.136;2023-05-07T14:38:56;11.10;;;4.33;;
4885;SDS011;2457;51.788;6.136;2023-05-07T14:41:25;10.30;;;5.23;;
4885;SDS011;2457;51.788;6.136;2023-05-07T14:43:52;8.23;;;4.33;;
4885;SDS011;2457;51.788;6.136;2023-05-07T14:46:19;8.80;;;4.80;;
4885;SDS011;2457;51.788;6.136;2023-05-07T14:48:47;9.87;;;4.97;;
4885;SDS011;2457;51.788;6.136;2023-05-07T14:51:14;10.33;;;4.57;;
4885;SDS011;2457;51.788;6.136;2023-05-07T14:53:42;9.20;;;5.17;;
4885;SDS011;2457;51.788;6.136;2023-05-07T14:56:09;10.50;;;5.10;;
4885;SDS011;2457;51.788;6.136;2023-05-07T14:58:36;11.43;;;5.73;;
4885;SDS011;2457;51.788;6.136;2023-05-07T15:01:04;12.23;;;5.23;;
4885;SDS011;2457;51.788;6.136;2023-05-07T15:03:31;11.60;;;5.83;;
4885;SDS011;2457;51.788;6.136;2023-05-07T15:05:58;9.80;;;5.77;;
4885;SDS011;2457;51.788;6.136;2023-05-07T15:08:26;8.30;;;4.40;;
4885;SDS011;2457;51.788;6.136;2023-05-07T15:10:53;6.20;;;3.27;;
4885;SDS011;2457;51.788;6.136;2023-05-07T15:13:21;5.70;;;2.60;;
4885;SDS011;2457;51.788;6.136;2023-05-07T15:15:48;7.63;;;2.43;;
4885;SDS011;2457;51.788;6.136;2023-05-07T15:18:16;5.17;;;1.80;;
4885;SDS011;2457;51.788;6.136;2023-05-07T15:20:43;5.63;;;2.10;;